East Worcester, NY (12064)

6:50 PM EDT on August 22, 2014 (GMT -0400)
Worcester Farm | Change Station
CLOSE
Current Station
Personal Weather Station
Location: Worcester, NY
Elevation: 1759 ft
Nearby Weather Stations

Elev 1759 ft 42.62 °N, 74.75 °W | Updated 22 minutes ago

Light Rain
Light Rain
63.1 °F
Feels Like 63.1 °F
N
2.0
Wind Variable Wind from SSE
Gusts 7.0 mph

Today
High -- | Low -- °F
--% Chance of Precip.
Yesterday
High -- | Low -- °F
Precip. -- in
6:12 AM 7:49 PM
Waning Crescent, 6% visible
Pressure 30.07 in
Visibility 10.0 miles
Clouds Few 600 ft
Overcast 3800 ft
Dew Point 61 °F
Humidity 94%
Rainfall 0.09 in
Snow Depth Not available.
UV 0 out of 12
Pollen 3.80 out of 12
PM2.5 Moderate
Flu Activity Not available.
METAR KALB 222151Z 00000KT 10SM -RA FEW006 OVC038 20/16 A3007 RMK AO2 RAB24 SLP182 P0000 T02000161 $

More Conditions Fewer Conditions

Pressure 30.07 in
Visibility 10.0 miles
Clouds Few 600 ft
Overcast 3800 ft
Dew Point 61 °F
Humidity 94%
Rainfall 0.09 in
Snow Depth Not available.
UV 0 out of 12
Pollen 3.80 out of 12
PM2.5 Moderate
Flu Activity Not available.
METAR KALB 222151Z 00000KT 10SM -RA FEW006 OVC038 20/16 A3007 RMK AO2 RAB24 SLP182 P0000 T02000161 $

More Conditions Fewer Conditions

Nowcast | as of 5:49 PM EDT on August 22, 2014

Scattered showers and thunderstorms will continue through sunset. The heavier showers and thunderstorm could produce rainfall rates over one inch an hour. The heavy rainfall could cause ditches and culverts to overflow, and ponding of water in low lying areas.

×

10-Day Weather Forecast

Almanac

Astronomy

Aug. 22, 2014 Rise Set
Actual Time 6:12 AM EDT 7:49 PM EDT
Civil Twilight 5:43 AM EDT 8:18 PM EDT
Nautical Twilight 5:06 AM EDT 8:54 PM EDT
Astronomical Twilight 4:28 AM EDT 9:33 PM EDT
Moon 3:31 AM EDT 5:57 PM EDT
Length of Visible Light 14h 35m
Length of Day
13h 36m
Tomorrow will be 2m 40s shorter.
Waning Crescent, 6% of the Moon is Illuminated
Today
Waning Crescent
Aug 25
New
Sep 2
First Quarter
Sep 8
Full
Sep 15
Last Quarter

Today's Extremes

State Highs State Lows

Community

WunderPhotos

Upload Photos

1,746,278 photos uploaded!

WunderBlogs® & News

By Dr. Jeff Masters
Director of Meteorology, Weather Underground
By Kari Strenfel
Meteorologist, Weather Underground
By Christopher C. Burt
Weather Historian, Weather Underground
August 22, 2014
August 22, 2014
August 22, 2014

Nearby

Air Quality

  Air Quality AQ Index Pollutant
Yesterday Good
PM2.5
Yesterday Good
OZONE
Current Moderate
PM2.5
Friday Good
OZONE
Friday Good
PM2.5
Saturday Good
OZONE
Saturday Good
PM2.5
Sunday Good
PM2.5
Sunday Good
OZONE
Monday Good
PM2.5
Monday Good
OZONE

Snow Depth

Station Depth Elevation
No new snow has been reported.

Earthquake Activity

City Distance Mag. Time & Date
No recent earthquake activity has been reported nearby.
Minimum magnitude displayed is 2.5.

Coastal Water Temperatures

Place Temperature
No Stations Reporting

Nearby Weather Stations